EFHA

Halli Airport

Halli / Kuorevesi, Finland
METAR EFHA 190720Z 05008KT CAVOK 25/11 Q1015
Observed Flight Rules
Jul-19 @ 07:20 UTC (22 minutes ago) Visual Flight Rules
Wind Visibility Clouds
50° at 8 knots 10,000+ meters
  • Clear skies
Temperatures Readings
Current 25°C / 77°F
Dewpoint 11°C / 52°F
Humidity 42%
Altimeter 29.97" Hg
Pressure 1015 hPa
Elevation 145
METAR EFHA 190720Z 05008KT CAVOK 25/11 Q1015
Observed Flight Rules
Jul-19 @ 07:20 UTC
(22 minutes ago)
VFR
Wind Visibility
50° at 8 knots 10,000+ meters
Clouds
  • Clear skies
Temperature Dewpoint
25°C / 77°F 11°C / 52°F
Humidity Altimeter Pressure
42% 29.97" Hg 1015 hPa